sensor_id;sensor_type;location;lat;lon;timestamp;P1;durP1;ratioP1;P2;durP2;ratioP2
76636;SDS011;65532;52.124;5.480;2023-11-18T00:00:38;24.42;;;9.95;;
76636;SDS011;65532;52.124;5.480;2023-11-18T00:03:05;24.15;;;12.30;;
76636;SDS011;65532;52.124;5.480;2023-11-18T00:05:32;22.25;;;11.48;;
76636;SDS011;65532;52.124;5.480;2023-11-18T00:07:58;25.60;;;12.40;;
76636;SDS011;65532;52.124;5.480;2023-11-18T00:10:25;23.30;;;10.32;;
76636;SDS011;65532;52.124;5.480;2023-11-18T00:12:51;18.95;;;10.82;;
76636;SDS011;65532;52.124;5.480;2023-11-18T00:15:18;22.20;;;11.93;;
76636;SDS011;65532;52.124;5.480;2023-11-18T00:17:46;22.58;;;11.93;;
76636;SDS011;65532;52.124;5.480;2023-11-18T00:20:12;19.42;;;10.68;;
76636;SDS011;65532;52.124;5.480;2023-11-18T00:22:40;20.23;;;11.15;;
76636;SDS011;65532;52.124;5.480;2023-11-18T00:25:08;22.02;;;10.65;;
76636;SDS011;65532;52.124;5.480;2023-11-18T00:27:35;21.65;;;10.63;;
76636;SDS011;65532;52.124;5.480;2023-11-18T00:30:05;24.70;;;9.57;;
76636;SDS011;65532;52.124;5.480;2023-11-18T00:32:34;21.75;;;11.23;;
76636;SDS011;65532;52.124;5.480;2023-11-18T00:35:01;19.73;;;10.52;;
76636;SDS011;65532;52.124;5.480;2023-11-18T00:37:30;20.75;;;9.98;;
76636;SDS011;65532;52.124;5.480;2023-11-18T00:39:57;19.27;;;10.27;;
76636;SDS011;65532;52.124;5.480;2023-11-18T00:42:24;20.00;;;10.80;;
76636;SDS011;65532;52.124;5.480;2023-11-18T00:44:51;21.00;;;10.90;;
76636;SDS011;65532;52.124;5.480;2023-11-18T00:47:17;20.27;;;11.05;;
76636;SDS011;65532;52.124;5.480;2023-11-18T00:49:45;18.73;;;10.27;;
76636;SDS011;65532;52.124;5.480;2023-11-18T00:52:11;23.75;;;10.95;;
76636;SDS011;65532;52.124;5.480;2023-11-18T00:54:38;17.77;;;9.77;;
76636;SDS011;65532;52.124;5.480;2023-11-18T00:57:04;22.65;;;9.80;;
76636;SDS011;65532;52.124;5.480;2023-11-18T00:59:31;18.67;;;9.88;;
76636;SDS011;65532;52.124;5.480;2023-11-18T01:01:57;17.35;;;9.38;;
76636;SDS011;65532;52.124;5.480;2023-11-18T01:04:24;20.25;;;10.93;;
76636;SDS011;65532;52.124;5.480;2023-11-18T01:06:52;20.48;;;12.02;;
76636;SDS011;65532;52.124;5.480;2023-11-18T01:09:18;19.58;;;10.18;;
76636;SDS011;65532;52.124;5.480;2023-11-18T01:11:45;21.38;;;9.25;;
76636;SDS011;65532;52.124;5.480;2023-11-18T01:14:32;24.70;;;11.40;;
76636;SDS011;65532;52.124;5.480;2023-11-18T01:16:58;21.27;;;10.48;;
76636;SDS011;65532;52.124;5.480;2023-11-18T01:19:25;16.00;;;9.10;;
76636;SDS011;65532;52.124;5.480;2023-11-18T01:21:52;26.67;;;12.63;;
76636;SDS011;65532;52.124;5.480;2023-11-18T01:24:19;20.27;;;8.00;;
76636;SDS011;65532;52.124;5.480;2023-11-18T01:26:46;18.67;;;8.30;;
76636;SDS011;65532;52.124;5.480;2023-11-18T01:29:12;23.55;;;9.20;;
76636;SDS011;65532;52.124;5.480;2023-11-18T01:31:39;19.33;;;10.70;;
76636;SDS011;65532;52.124;5.480;2023-11-18T01:34:18;18.10;;;9.38;;
76636;SDS011;65532;52.124;5.480;2023-11-18T01:36:48;20.55;;;10.43;;
76636;SDS011;65532;52.124;5.480;2023-11-18T01:39:16;17.17;;;9.10;;
76636;SDS011;65532;52.124;5.480;2023-11-18T01:41:44;19.27;;;10.32;;
76636;SDS011;65532;52.124;5.480;2023-11-18T01:44:11;21.48;;;8.45;;
76636;SDS011;65532;52.124;5.480;2023-11-18T01:46:41;20.77;;;9.77;;
76636;SDS011;65532;52.124;5.480;2023-11-18T01:49:11;18.88;;;9.30;;
76636;SDS011;65532;52.124;5.480;2023-11-18T01:51:42;24.33;;;11.20;;
76636;SDS011;65532;52.124;5.480;2023-11-18T01:54:12;19.20;;;9.77;;
76636;SDS011;65532;52.124;5.480;2023-11-18T01:56:43;23.05;;;10.07;;
76636;SDS011;65532;52.124;5.480;2023-11-18T01:59:12;19.88;;;10.13;;
76636;SDS011;65532;52.124;5.480;2023-11-18T02:01:48;17.70;;;10.68;;
76636;SDS011;65532;52.124;5.480;2023-11-18T02:04:20;16.50;;;9.38;;
76636;SDS011;65532;52.124;5.480;2023-11-18T02:06:48;27.20;;;12.13;;
76636;SDS011;65532;52.124;5.480;2023-11-18T02:09:16;25.45;;;11.32;;
76636;SDS011;65532;52.124;5.480;2023-11-18T02:11:59;19.10;;;8.23;;
76636;SDS011;65532;52.124;5.480;2023-11-18T02:14:36;21.83;;;11.55;;
76636;SDS011;65532;52.124;5.480;2023-11-18T02:17:06;21.50;;;11.23;;
76636;SDS011;65532;52.124;5.480;2023-11-18T02:22:05;16.73;;;8.32;;
76636;SDS011;65532;52.124;5.480;2023-11-18T02:24:34;16.65;;;7.43;;
76636;SDS011;65532;52.124;5.480;2023-11-18T02:27:03;21.15;;;13.00;;
76636;SDS011;65532;52.124;5.480;2023-11-18T02:29:39;20.63;;;10.82;;
76636;SDS011;65532;52.124;5.480;2023-11-18T02:32:11;22.02;;;11.60;;
76636;SDS011;65532;52.124;5.480;2023-11-18T02:34:45;24.95;;;12.57;;
76636;SDS011;65532;52.124;5.480;2023-11-18T02:37:19;22.08;;;12.43;;
76636;SDS011;65532;52.124;5.480;2023-11-18T02:39:48;23.65;;;13.15;;
76636;SDS011;65532;52.124;5.480;2023-11-18T02:42:20;20.75;;;14.18;;
76636;SDS011;65532;52.124;5.480;2023-11-18T02:44:49;20.48;;;10.43;;
76636;SDS011;65532;52.124;5.480;2023-11-18T02:47:25;26.00;;;10.88;;
76636;SDS011;65532;52.124;5.480;2023-11-18T02:49:53;18.05;;;9.63;;
76636;SDS011;65532;52.124;5.480;2023-11-18T02:52:22;22.13;;;11.93;;
76636;SDS011;65532;52.124;5.480;2023-11-18T02:54:49;20.40;;;12.23;;
76636;SDS011;65532;52.124;5.480;2023-11-18T02:57:15;21.10;;;9.98;;
76636;SDS011;65532;52.124;5.480;2023-11-18T02:59:41;18.95;;;11.25;;
76636;SDS011;65532;52.124;5.480;2023-11-18T03:02:08;19.95;;;9.63;;
76636;SDS011;65532;52.124;5.480;2023-11-18T03:04:34;19.40;;;11.45;;
76636;SDS011;65532;52.124;5.480;2023-11-18T03:07:01;18.10;;;10.68;;
76636;SDS011;65532;52.124;5.480;2023-11-18T03:09:27;18.92;;;9.45;;
76636;SDS011;65532;52.124;5.480;2023-11-18T03:11:54;19.92;;;10.07;;
76636;SDS011;65532;52.124;5.480;2023-11-18T03:14:21;21.38;;;11.75;;
76636;SDS011;65532;52.124;5.480;2023-11-18T03:16:48;17.33;;;10.63;;
76636;SDS011;65532;52.124;5.480;2023-11-18T03:19:14;17.17;;;10.50;;
76636;SDS011;65532;52.124;5.480;2023-11-18T03:21:41;22.65;;;10.77;;
76636;SDS011;65532;52.124;5.480;2023-11-18T03:24:07;17.05;;;9.13;;
76636;SDS011;65532;52.124;5.480;2023-11-18T03:26:35;20.42;;;9.48;;
76636;SDS011;65532;52.124;5.480;2023-11-18T03:29:02;18.17;;;11.10;;
76636;SDS011;65532;52.124;5.480;2023-11-18T03:31:29;14.85;;;8.50;;
76636;SDS011;65532;52.124;5.480;2023-11-18T03:33:56;20.77;;;11.32;;
76636;SDS011;65532;52.124;5.480;2023-11-18T03:36:22;19.77;;;9.35;;
76636;SDS011;65532;52.124;5.480;2023-11-18T03:38:49;20.05;;;11.20;;
76636;SDS011;65532;52.124;5.480;2023-11-18T03:41:15;19.25;;;9.98;;
76636;SDS011;65532;52.124;5.480;2023-11-18T03:43:42;16.85;;;10.70;;
76636;SDS011;65532;52.124;5.480;2023-11-18T03:46:10;16.23;;;10.25;;
76636;SDS011;65532;52.124;5.480;2023-11-18T03:48:37;11.13;;;5.55;;
76636;SDS011;65532;52.124;5.480;2023-11-18T03:51:03;15.85;;;10.45;;
76636;SDS011;65532;52.124;5.480;2023-11-18T03:53:30;12.10;;;6.82;;
76636;SDS011;65532;52.124;5.480;2023-11-18T03:55:56;8.93;;;5.90;;
76636;SDS011;65532;52.124;5.480;2023-11-18T03:58:23;20.85;;;10.13;;
76636;SDS011;65532;52.124;5.480;2023-11-18T04:00:50;13.48;;;8.52;;
76636;SDS011;65532;52.124;5.480;2023-11-18T04:03:16;16.33;;;8.65;;
76636;SDS011;65532;52.124;5.480;2023-11-18T04:05:43;17.15;;;9.50;;
76636;SDS011;65532;52.124;5.480;2023-11-18T04:08:10;18.00;;;8.77;;
76636;SDS011;65532;52.124;5.480;2023-11-18T04:10:38;19.05;;;10.43;;
76636;SDS011;65532;52.124;5.480;2023-11-18T04:13:04;15.10;;;6.20;;
76636;SDS011;65532;52.124;5.480;2023-11-18T04:15:31;17.90;;;8.55;;
76636;SDS011;65532;52.124;5.480;2023-11-18T04:17:58;14.82;;;8.30;;
76636;SDS011;65532;52.124;5.480;2023-11-18T04:20:24;12.75;;;7.38;;
76636;SDS011;65532;52.124;5.480;2023-11-18T04:22:51;20.90;;;10.73;;
76636;SDS011;65532;52.124;5.480;2023-11-18T04:25:17;18.58;;;10.88;;
76636;SDS011;65532;52.124;5.480;2023-11-18T04:27:44;19.25;;;11.50;;
76636;SDS011;65532;52.124;5.480;2023-11-18T04:30:12;15.70;;;9.90;;
76636;SDS011;65532;52.124;5.480;2023-11-18T04:32:40;15.30;;;8.80;;
76636;SDS011;65532;52.124;5.480;2023-11-18T04:35:09;18.70;;;9.45;;
76636;SDS011;65532;52.124;5.480;2023-11-18T04:37:36;18.02;;;10.88;;
76636;SDS011;65532;52.124;5.480;2023-11-18T04:40:03;15.40;;;9.82;;
76636;SDS011;65532;52.124;5.480;2023-11-18T04:42:30;16.85;;;8.40;;
76636;SDS011;65532;52.124;5.480;2023-11-18T04:44:59;17.80;;;10.70;;
76636;SDS011;65532;52.124;5.480;2023-11-18T04:47:26;16.92;;;7.35;;
76636;SDS011;65532;52.124;5.480;2023-11-18T04:49:53;14.07;;;9.73;;
76636;SDS011;65532;52.124;5.480;2023-11-18T04:52:20;20.48;;;10.27;;
76636;SDS011;65532;52.124;5.480;2023-11-18T04:54:46;15.50;;;9.55;;
76636;SDS011;65532;52.124;5.480;2023-11-18T04:57:14;18.42;;;7.57;;
76636;SDS011;65532;52.124;5.480;2023-11-18T04:59:41;15.30;;;8.88;;
76636;SDS011;65532;52.124;5.480;2023-11-18T05:02:09;18.65;;;8.95;;
76636;SDS011;65532;52.124;5.480;2023-11-18T05:04:36;13.50;;;8.07;;
76636;SDS011;65532;52.124;5.480;2023-11-18T05:07:02;20.27;;;12.52;;
76636;SDS011;65532;52.124;5.480;2023-11-18T05:09:30;23.02;;;9.75;;
76636;SDS011;65532;52.124;5.480;2023-11-18T05:11:57;18.88;;;9.57;;
76636;SDS011;65532;52.124;5.480;2023-11-18T05:14:25;22.67;;;10.63;;
76636;SDS011;65532;52.124;5.480;2023-11-18T05:16:52;23.92;;;12.60;;
76636;SDS011;65532;52.124;5.480;2023-11-18T05:19:19;20.35;;;10.05;;
76636;SDS011;65532;52.124;5.480;2023-11-18T05:21:46;15.38;;;9.13;;
76636;SDS011;65532;52.124;5.480;2023-11-18T05:24:16;19.10;;;10.25;;
76636;SDS011;65532;52.124;5.480;2023-11-18T05:26:42;25.02;;;11.13;;
76636;SDS011;65532;52.124;5.480;2023-11-18T05:29:09;20.90;;;12.05;;
76636;SDS011;65532;52.124;5.480;2023-11-18T05:31:36;18.92;;;10.50;;
76636;SDS011;65532;52.124;5.480;2023-11-18T05:34:03;15.27;;;9.18;;
76636;SDS011;65532;52.124;5.480;2023-11-18T05:36:30;17.95;;;10.35;;
76636;SDS011;65532;52.124;5.480;2023-11-18T05:39:03;22.20;;;10.77;;
76636;SDS011;65532;52.124;5.480;2023-11-18T05:41:31;16.98;;;7.60;;
76636;SDS011;65532;52.124;5.480;2023-11-18T05:43:58;21.48;;;10.95;;
76636;SDS011;65532;52.124;5.480;2023-11-18T05:46:25;18.30;;;9.98;;
76636;SDS011;65532;52.124;5.480;2023-11-18T05:48:52;18.42;;;11.77;;
76636;SDS011;65532;52.124;5.480;2023-11-18T05:51:22;14.82;;;8.30;;
76636;SDS011;65532;52.124;5.480;2023-11-18T05:53:50;18.20;;;8.55;;
76636;SDS011;65532;52.124;5.480;2023-11-18T05:56:18;23.23;;;10.77;;
76636;SDS011;65532;52.124;5.480;2023-11-18T05:58:48;20.65;;;10.88;;
76636;SDS011;65532;52.124;5.480;2023-11-18T06:01:15;15.95;;;6.85;;
76636;SDS011;65532;52.124;5.480;2023-11-18T06:03:43;14.18;;;5.15;;
76636;SDS011;65532;52.124;5.480;2023-11-18T06:06:11;21.73;;;9.82;;
76636;SDS011;65532;52.124;5.480;2023-11-18T06:08:40;16.02;;;7.80;;
76636;SDS011;65532;52.124;5.480;2023-11-18T06:11:13;15.82;;;10.05;;
76636;SDS011;65532;52.124;5.480;2023-11-18T06:13:53;18.35;;;9.75;;
76636;SDS011;65532;52.124;5.480;2023-11-18T06:16:21;12.23;;;6.22;;
76636;SDS011;65532;52.124;5.480;2023-11-18T06:18:52;13.70;;;8.90;;
76636;SDS011;65532;52.124;5.480;2023-11-18T06:21:20;13.65;;;8.43;;
76636;SDS011;65532;52.124;5.480;2023-11-18T06:23:50;20.88;;;10.27;;
76636;SDS011;65532;52.124;5.480;2023-11-18T06:26:17;18.50;;;9.52;;
76636;SDS011;65532;52.124;5.480;2023-11-18T06:28:45;13.32;;;7.55;;
76636;SDS011;65532;52.124;5.480;2023-11-18T06:31:12;15.07;;;8.30;;
76636;SDS011;65532;52.124;5.480;2023-11-18T06:33:40;9.05;;;4.43;;
76636;SDS011;65532;52.124;5.480;2023-11-18T06:38:40;13.98;;;6.53;;
76636;SDS011;65532;52.124;5.480;2023-11-18T06:41:07;13.52;;;8.25;;
76636;SDS011;65532;52.124;5.480;2023-11-18T06:43:39;13.75;;;8.10;;
76636;SDS011;65532;52.124;5.480;2023-11-18T06:46:28;19.15;;;8.80;;
76636;SDS011;65532;52.124;5.480;2023-11-18T06:49:01;13.30;;;7.22;;
76636;SDS011;65532;52.124;5.480;2023-11-18T06:51:31;13.55;;;8.43;;
76636;SDS011;65532;52.124;5.480;2023-11-18T06:54:01;15.32;;;9.27;;
76636;SDS011;65532;52.124;5.480;2023-11-18T06:56:40;12.00;;;5.45;;
76636;SDS011;65532;52.124;5.480;2023-11-18T06:59:11;12.57;;;7.55;;
76636;SDS011;65532;52.124;5.480;2023-11-18T07:01:39;18.20;;;10.07;;
76636;SDS011;65532;52.124;5.480;2023-11-18T07:04:11;13.23;;;6.25;;
76636;SDS011;65532;52.124;5.480;2023-11-18T07:06:40;15.20;;;9.95;;
76636;SDS011;65532;52.124;5.480;2023-11-18T07:09:07;12.13;;;6.65;;
76636;SDS011;65532;52.124;5.480;2023-11-18T07:11:40;11.30;;;7.47;;
76636;SDS011;65532;52.124;5.480;2023-11-18T07:14:07;15.65;;;8.35;;
76636;SDS011;65532;52.124;5.480;2023-11-18T07:16:35;16.58;;;7.65;;
76636;SDS011;65532;52.124;5.480;2023-11-18T07:19:04;11.98;;;5.50;;
76636;SDS011;65532;52.124;5.480;2023-11-18T07:21:30;11.90;;;4.93;;
76636;SDS011;65532;52.124;5.480;2023-11-18T07:23:57;18.13;;;7.25;;
76636;SDS011;65532;52.124;5.480;2023-11-18T07:26:23;13.55;;;6.45;;
76636;SDS011;65532;52.124;5.480;2023-11-18T07:28:50;13.80;;;7.43;;
76636;SDS011;65532;52.124;5.480;2023-11-18T07:31:18;17.30;;;9.30;;
76636;SDS011;65532;52.124;5.480;2023-11-18T07:33:45;13.65;;;7.00;;
76636;SDS011;65532;52.124;5.480;2023-11-18T07:36:15;14.45;;;7.55;;
76636;SDS011;65532;52.124;5.480;2023-11-18T07:38:48;16.48;;;8.20;;
76636;SDS011;65532;52.124;5.480;2023-11-18T07:41:15;12.93;;;7.82;;
76636;SDS011;65532;52.124;5.480;2023-11-18T07:43:50;12.70;;;7.70;;
76636;SDS011;65532;52.124;5.480;2023-11-18T07:46:19;19.35;;;9.30;;
76636;SDS011;65532;52.124;5.480;2023-11-18T07:48:49;13.45;;;8.52;;
76636;SDS011;65532;52.124;5.480;2023-11-18T07:51:16;14.93;;;8.85;;
76636;SDS011;65532;52.124;5.480;2023-11-18T07:53:42;15.30;;;8.10;;
76636;SDS011;65532;52.124;5.480;2023-11-18T07:56:09;17.10;;;8.50;;
76636;SDS011;65532;52.124;5.480;2023-11-18T07:58:38;12.10;;;5.57;;
76636;SDS011;65532;52.124;5.480;2023-11-18T08:01:04;11.15;;;6.85;;
76636;SDS011;65532;52.124;5.480;2023-11-18T08:03:33;9.85;;;7.68;;
76636;SDS011;65532;52.124;5.480;2023-11-18T08:06:00;16.85;;;9.15;;
76636;SDS011;65532;52.124;5.480;2023-11-18T08:08:28;12.20;;;7.25;;
76636;SDS011;65532;52.124;5.480;2023-11-18T08:10:54;13.77;;;7.38;;
76636;SDS011;65532;52.124;5.480;2023-11-18T08:13:21;11.63;;;7.72;;
76636;SDS011;65532;52.124;5.480;2023-11-18T08:15:48;13.45;;;7.68;;
76636;SDS011;65532;52.124;5.480;2023-11-18T08:18:15;10.80;;;6.60;;
76636;SDS011;65532;52.124;5.480;2023-11-18T08:20:42;5.93;;;4.60;;
76636;SDS011;65532;52.124;5.480;2023-11-18T08:23:09;12.13;;;6.47;;
76636;SDS011;65532;52.124;5.480;2023-11-18T08:25:36;13.40;;;8.38;;
76636;SDS011;65532;52.124;5.480;2023-11-18T08:28:03;10.05;;;5.78;;
76636;SDS011;65532;52.124;5.480;2023-11-18T08:30:31;15.00;;;7.70;;
76636;SDS011;65532;52.124;5.480;2023-11-18T08:33:00;10.85;;;6.63;;
76636;SDS011;65532;52.124;5.480;2023-11-18T08:35:30;12.07;;;7.28;;
76636;SDS011;65532;52.124;5.480;2023-11-18T08:37:57;10.07;;;6.88;;
76636;SDS011;65532;52.124;5.480;2023-11-18T08:40:25;11.50;;;7.75;;
76636;SDS011;65532;52.124;5.480;2023-11-18T08:42:52;10.50;;;5.70;;
76636;SDS011;65532;52.124;5.480;2023-11-18T08:45:23;7.78;;;5.40;;
76636;SDS011;65532;52.124;5.480;2023-11-18T08:47:59;14.00;;;6.03;;
76636;SDS011;65532;52.124;5.480;2023-11-18T08:50:35;10.90;;;3.92;;
76636;SDS011;65532;52.124;5.480;2023-11-18T08:53:02;11.55;;;7.90;;
76636;SDS011;65532;52.124;5.480;2023-11-18T08:55:35;13.52;;;7.18;;
76636;SDS011;65532;52.124;5.480;2023-11-18T08:58:17;9.05;;;4.32;;
76636;SDS011;65532;52.124;5.480;2023-11-18T09:00:49;10.13;;;6.03;;
76636;SDS011;65532;52.124;5.480;2023-11-18T09:03:22;6.80;;;5.63;;
76636;SDS011;65532;52.124;5.480;2023-11-18T09:08:34;9.70;;;6.53;;
76636;SDS011;65532;52.124;5.480;2023-11-18T09:11:02;12.93;;;7.93;;
76636;SDS011;65532;52.124;5.480;2023-11-18T09:13:33;12.57;;;6.38;;
76636;SDS011;65532;52.124;5.480;2023-11-18T09:16:02;8.73;;;5.30;;
76636;SDS011;65532;52.124;5.480;2023-11-18T09:18:37;11.30;;;5.50;;
76636;SDS011;65532;52.124;5.480;2023-11-18T09:21:09;12.93;;;5.97;;
76636;SDS011;65532;52.124;5.480;2023-11-18T09:23:42;12.38;;;5.75;;
76636;SDS011;65532;52.124;5.480;2023-11-18T09:26:08;9.75;;;5.07;;
76636;SDS011;65532;52.124;5.480;2023-11-18T09:28:37;14.60;;;5.07;;
76636;SDS011;65532;52.124;5.480;2023-11-18T09:31:04;8.63;;;5.38;;
76636;SDS011;65532;52.124;5.480;2023-11-18T09:33:32;7.13;;;3.17;;
76636;SDS011;65532;52.124;5.480;2023-11-18T09:36:02;5.78;;;3.80;;
76636;SDS011;65532;52.124;5.480;2023-11-18T09:38:29;14.90;;;4.93;;
76636;SDS011;65532;52.124;5.480;2023-11-18T09:41:02;7.80;;;4.32;;
76636;SDS011;65532;52.124;5.480;2023-11-18T09:43:30;11.90;;;6.53;;
76636;SDS011;65532;52.124;5.480;2023-11-18T09:46:12;6.45;;;4.10;;
76636;SDS011;65532;52.124;5.480;2023-11-18T09:48:53;6.25;;;4.70;;
76636;SDS011;65532;52.124;5.480;2023-11-18T09:51:34;11.80;;;6.13;;
76636;SDS011;65532;52.124;5.480;2023-11-18T09:54:05;9.70;;;4.40;;
76636;SDS011;65532;52.124;5.480;2023-11-18T09:59:40;11.23;;;6.70;;
76636;SDS011;65532;52.124;5.480;2023-11-18T10:02:14;6.25;;;4.97;;
76636;SDS011;65532;52.124;5.480;2023-11-18T10:04:40;7.25;;;5.50;;
76636;SDS011;65532;52.124;5.480;2023-11-18T10:07:08;6.75;;;5.40;;
76636;SDS011;65532;52.124;5.480;2023-11-18T10:09:36;6.70;;;3.47;;
76636;SDS011;65532;52.124;5.480;2023-11-18T10:12:09;8.82;;;4.85;;
76636;SDS011;65532;52.124;5.480;2023-11-18T10:14:41;9.38;;;4.88;;
76636;SDS011;65532;52.124;5.480;2023-11-18T10:17:10;7.50;;;4.10;;
76636;SDS011;65532;52.124;5.480;2023-11-18T10:22:24;5.07;;;3.72;;
76636;SDS011;65532;52.124;5.480;2023-11-18T10:24:56;11.90;;;3.70;;
76636;SDS011;65532;52.124;5.480;2023-11-18T10:27:27;9.13;;;4.40;;
76636;SDS011;65532;52.124;5.480;2023-11-18T10:29:57;8.63;;;4.72;;
76636;SDS011;65532;52.124;5.480;2023-11-18T10:32:29;6.85;;;3.28;;
76636;SDS011;65532;52.124;5.480;2023-11-18T10:34:56;4.63;;;2.67;;
76636;SDS011;65532;52.124;5.480;2023-11-18T10:37:26;8.52;;;4.05;;
76636;SDS011;65532;52.124;5.480;2023-11-18T10:39:57;7.15;;;3.55;;
76636;SDS011;65532;52.124;5.480;2023-11-18T10:42:27;10.32;;;5.18;;
76636;SDS011;65532;52.124;5.480;2023-11-18T10:44:56;4.75;;;3.17;;
76636;SDS011;65532;52.124;5.480;2023-11-18T10:47:27;6.22;;;4.53;;
76636;SDS011;65532;52.124;5.480;2023-11-18T10:49:55;8.35;;;3.25;;
76636;SDS011;65532;52.124;5.480;2023-11-18T10:52:22;7.38;;;3.53;;
76636;SDS011;65532;52.124;5.480;2023-11-18T10:54:54;11.43;;;4.28;;
76636;SDS011;65532;52.124;5.480;2023-11-18T10:57:22;7.45;;;2.92;;
76636;SDS011;65532;52.124;5.480;2023-11-18T10:59:58;6.85;;;3.03;;
76636;SDS011;65532;52.124;5.480;2023-11-18T11:05:01;7.10;;;4.28;;
76636;SDS011;65532;52.124;5.480;2023-11-18T11:07:28;7.32;;;3.58;;
76636;SDS011;65532;52.124;5.480;2023-11-18T11:09:57;5.97;;;2.70;;
76636;SDS011;65532;52.124;5.480;2023-11-18T11:12:25;8.07;;;4.07;;
76636;SDS011;65532;52.124;5.480;2023-11-18T11:15:12;8.00;;;4.57;;
76636;SDS011;65532;52.124;5.480;2023-11-18T11:17:52;4.70;;;2.17;;
76636;SDS011;65532;52.124;5.480;2023-11-18T11:20:29;6.18;;;2.67;;
76636;SDS011;65532;52.124;5.480;2023-11-18T11:28:42;5.07;;;1.88;;
76636;SDS011;65532;52.124;5.480;2023-11-18T11:31:34;7.63;;;3.40;;
76636;SDS011;65532;52.124;5.480;2023-11-18T11:34:16;5.13;;;4.22;;
76636;SDS011;65532;52.124;5.480;2023-11-18T11:36:50;11.70;;;4.47;;
76636;SDS011;65532;52.124;5.480;2023-11-18T11:39:20;7.50;;;3.35;;
76636;SDS011;65532;52.124;5.480;2023-11-18T11:41:56;6.10;;;3.97;;
76636;SDS011;65532;52.124;5.480;2023-11-18T11:44:25;6.43;;;1.73;;
76636;SDS011;65532;52.124;5.480;2023-11-18T11:47:00;4.32;;;1.75;;
76636;SDS011;65532;52.124;5.480;2023-11-18T11:49:44;5.22;;;3.15;;
76636;SDS011;65532;52.124;5.480;2023-11-18T11:52:22;7.68;;;3.92;;
76636;SDS011;65532;52.124;5.480;2023-11-18T11:57:31;4.68;;;3.05;;
76636;SDS011;65532;52.124;5.480;2023-11-18T12:00:08;8.45;;;3.33;;
76636;SDS011;65532;52.124;5.480;2023-11-18T12:02:48;6.05;;;2.97;;
76636;SDS011;65532;52.124;5.480;2023-11-18T12:05:17;9.95;;;3.47;;
76636;SDS011;65532;52.124;5.480;2023-11-18T12:07:51;8.93;;;3.58;;
76636;SDS011;65532;52.124;5.480;2023-11-18T12:10:26;6.80;;;3.75;;
76636;SDS011;65532;52.124;5.480;2023-11-18T12:13:07;8.45;;;4.05;;
76636;SDS011;65532;52.124;5.480;2023-11-18T12:15:55;6.90;;;2.83;;
76636;SDS011;65532;52.124;5.480;2023-11-18T12:18:25;5.43;;;2.03;;
76636;SDS011;65532;52.124;5.480;2023-11-18T12:20:51;5.65;;;3.28;;
76636;SDS011;65532;52.124;5.480;2023-11-18T12:23:22;3.83;;;1.08;;
76636;SDS011;65532;52.124;5.480;2023-11-18T12:25:51;4.03;;;1.50;;
76636;SDS011;65532;52.124;5.480;2023-11-18T12:28:24;7.15;;;3.47;;
76636;SDS011;65532;52.124;5.480;2023-11-18T12:31:03;7.25;;;2.03;;
76636;SDS011;65532;52.124;5.480;2023-11-18T12:42:07;5.78;;;2.80;;
76636;SDS011;65532;52.124;5.480;2023-11-18T12:45:08;3.05;;;1.38;;
76636;SDS011;65532;52.124;5.480;2023-11-18T12:47:43;2.70;;;0.93;;
76636;SDS011;65532;52.124;5.480;2023-11-18T12:52:53;5.88;;;2.50;;
76636;SDS011;65532;52.124;5.480;2023-11-18T12:55:20;3.50;;;2.00;;
76636;SDS011;65532;52.124;5.480;2023-11-18T12:57:48;3.25;;;1.70;;
76636;SDS011;65532;52.124;5.480;2023-11-18T13:00:18;3.67;;;1.05;;
76636;SDS011;65532;52.124;5.480;2023-11-18T13:02:54;2.70;;;1.85;;
76636;SDS011;65532;52.124;5.480;2023-11-18T13:05:21;2.10;;;1.48;;
76636;SDS011;65532;52.124;5.480;2023-11-18T13:07:48;2.88;;;2.50;;
76636;SDS011;65532;52.124;5.480;2023-11-18T13:10:15;5.82;;;2.33;;
76636;SDS011;65532;52.124;5.480;2023-11-18T13:12:43;7.72;;;2.97;;
76636;SDS011;65532;52.124;5.480;2023-11-18T13:15:11;8.00;;;2.13;;
76636;SDS011;65532;52.124;5.480;2023-11-18T13:17:38;2.50;;;1.95;;
76636;SDS011;65532;52.124;5.480;2023-11-18T13:20:13;2.35;;;1.85;;
76636;SDS011;65532;52.124;5.480;2023-11-18T13:22:43;2.65;;;1.73;;
76636;SDS011;65532;52.124;5.480;2023-11-18T13:25:14;2.10;;;0.68;;
76636;SDS011;65532;52.124;5.480;2023-11-18T13:27:41;2.92;;;1.92;;
76636;SDS011;65532;52.124;5.480;2023-11-18T13:30:07;2.95;;;2.10;;
76636;SDS011;65532;52.124;5.480;2023-11-18T13:32:42;3.10;;;1.15;;
76636;SDS011;65532;52.124;5.480;2023-11-18T13:37:40;3.63;;;0.77;;
76636;SDS011;65532;52.124;5.480;2023-11-18T13:42:39;3.50;;;2.05;;
76636;SDS011;65532;52.124;5.480;2023-11-18T13:45:08;7.30;;;2.80;;
76636;SDS011;65532;52.124;5.480;2023-11-18T13:47:38;3.42;;;2.30;;
76636;SDS011;65532;52.124;5.480;2023-11-18T13:50:08;2.92;;;1.90;;
76636;SDS011;65532;52.124;5.480;2023-11-18T13:52:36;2.95;;;1.58;;
76636;SDS011;65532;52.124;5.480;2023-11-18T13:55:05;3.55;;;2.00;;
76636;SDS011;65532;52.124;5.480;2023-11-18T13:57:32;3.28;;;2.10;;
76636;SDS011;65532;52.124;5.480;2023-11-18T14:00:00;1.08;;;0.55;;
76636;SDS011;65532;52.124;5.480;2023-11-18T14:04:58;4.38;;;1.85;;
76636;SDS011;65532;52.124;5.480;2023-11-18T14:07:26;1.75;;;1.60;;
76636;SDS011;65532;52.124;5.480;2023-11-18T14:09:53;2.28;;;1.50;;
76636;SDS011;65532;52.124;5.480;2023-11-18T14:12:23;2.20;;;1.73;;
76636;SDS011;65532;52.124;5.480;2023-11-18T14:14:52;2.17;;;1.17;;
76636;SDS011;65532;52.124;5.480;2023-11-18T14:17:19;5.78;;;0.93;;
76636;SDS011;65532;52.124;5.480;2023-11-18T14:19:45;2.58;;;1.70;;
76636;SDS011;65532;52.124;5.480;2023-11-18T14:22:12;1.92;;;0.75;;
76636;SDS011;65532;52.124;5.480;2023-11-18T14:24:39;1.00;;;0.32;;
76636;SDS011;65532;52.124;5.480;2023-11-18T14:27:06;2.10;;;0.65;;
76636;SDS011;65532;52.124;5.480;2023-11-18T14:29:36;2.00;;;0.77;;
76636;SDS011;65532;52.124;5.480;2023-11-18T14:32:04;3.10;;;1.25;;
76636;SDS011;65532;52.124;5.480;2023-11-18T14:34:32;2.80;;;1.92;;
76636;SDS011;65532;52.124;5.480;2023-11-18T14:36:59;1.42;;;1.10;;
76636;SDS011;65532;52.124;5.480;2023-11-18T14:39:27;2.20;;;0.93;;
76636;SDS011;65532;52.124;5.480;2023-11-18T14:41:53;1.80;;;1.35;;
76636;SDS011;65532;52.124;5.480;2023-11-18T14:44:20;1.52;;;1.35;;
76636;SDS011;65532;52.124;5.480;2023-11-18T14:46:47;1.40;;;0.73;;
76636;SDS011;65532;52.124;5.480;2023-11-18T14:49:14;1.65;;;1.55;;
76636;SDS011;65532;52.124;5.480;2023-11-18T14:51:40;1.60;;;1.13;;
76636;SDS011;65532;52.124;5.480;2023-11-18T14:54:07;1.95;;;1.35;;
76636;SDS011;65532;52.124;5.480;2023-11-18T14:56:34;2.75;;;1.23;;
76636;SDS011;65532;52.124;5.480;2023-11-18T14:59:01;1.30;;;0.40;;
76636;SDS011;65532;52.124;5.480;2023-11-18T15:01:31;2.47;;;2.00;;
76636;SDS011;65532;52.124;5.480;2023-11-18T15:03:58;2.72;;;1.92;;
76636;SDS011;65532;52.124;5.480;2023-11-18T15:06:25;1.80;;;0.63;;
76636;SDS011;65532;52.124;5.480;2023-11-18T15:08:52;2.00;;;1.90;;
76636;SDS011;65532;52.124;5.480;2023-11-18T15:11:23;1.80;;;1.25;;
76636;SDS011;65532;52.124;5.480;2023-11-18T15:13:50;2.00;;;1.23;;
76636;SDS011;65532;52.124;5.480;2023-11-18T15:16:19;1.10;;;0.40;;
76636;SDS011;65532;52.124;5.480;2023-11-18T15:18:46;2.00;;;1.10;;
76636;SDS011;65532;52.124;5.480;2023-11-18T15:21:14;2.22;;;1.45;;
76636;SDS011;65532;52.124;5.480;2023-11-18T15:23:42;2.10;;;0.73;;
76636;SDS011;65532;52.124;5.480;2023-11-18T15:26:08;2.08;;;1.15;;
76636;SDS011;65532;52.124;5.480;2023-11-18T15:28:36;2.15;;;1.48;;
76636;SDS011;65532;52.124;5.480;2023-11-18T15:31:02;2.45;;;0.60;;